Time;durP1;ratioP1;P1;durP2;ratioP2;P2;SDS_P1;SDS_P2;PMS_P1;PMS_P2;Temp;Humidity;BMP_temperature;BMP_pressure;BME280_temperature;BME280_humidity;BME280_pressure;Samples;Min_cycle;Max_cycle;Signal;HPM_P1;HPM_P2
2022/11/26 00:01:46;;;;;;;11.88;0.45;;;;;;;;;;5069597;28;20547;-69
2022/11/26 00:04:12;;;;;;;0.68;0.55;;;;;;;;;;5069661;28;20032;-71
2022/11/26 00:06:38;;;;;;;0.22;0.20;;;;;;;;;;5069704;28;20022;-70
2022/11/26 00:09:05;;;;;;;0.20;0.20;;;;;;;;;;5068655;28;20044;-69
2022/11/26 00:11:30;;;;;;;0.30;0.30;;;;;;;;;;5069341;28;20098;-69
2022/11/26 00:13:56;;;;;;;0.52;0.47;;;;;;;;;;5068370;28;20483;-69
2022/11/26 00:16:21;;;;;;;0.30;0.30;;;;;;;;;;5071735;28;20035;-69
2022/11/26 00:18:47;;;;;;;0.20;0.20;;;;;;;;;;5072340;28;20480;-69
2022/11/26 00:21:32;;;;;;;0.10;0.10;;;;;;;;;;5073144;28;20072;-69
2022/11/26 00:23:59;;;;;;;0.20;0.20;;;;;;;;;;5073803;28;20028;-68
2022/11/26 00:26:24;;;;;;;0.10;0.10;;;;;;;;;;5073227;28;20055;-69
2022/11/26 00:28:50;;;;;;;0.20;0.20;;;;;;;;;;5073260;28;20056;-69
2022/11/26 00:31:15;;;;;;;0.10;0.10;;;;;;;;;;5071408;28;20025;-69
2022/11/26 00:33:41;;;;;;;0.20;0.20;;;;;;;;;;5071423;28;20415;-71
2022/11/26 00:36:21;;;;;;;0.57;0.40;;;;;;;;;;5072251;28;20053;-69
2022/11/26 00:38:48;;;;;;;0.10;0.10;;;;;;;;;;5073124;28;20107;-70
2022/11/26 00:41:15;;;;;;;0.10;0.10;;;;;;;;;;5077170;28;20029;-70
2022/11/26 00:43:41;;;;;;;0.10;0.10;;;;;;;;;;5076696;28;20039;-70
2022/11/26 00:46:10;;;;;;;0.10;0.10;;;;;;;;;;5076226;28;20024;-68
2022/11/26 00:48:35;;;;;;;0.10;0.10;;;;;;;;;;5076363;28;20524;-68
2022/11/26 00:51:01;;;;;;;0.10;0.10;;;;;;;;;;5076780;28;20116;-68
2022/11/26 00:53:26;;;;;;;0.60;0.60;;;;;;;;;;5076875;28;20029;-68
2022/11/26 00:55:52;;;;;;;0.10;0.10;;;;;;;;;;5076367;28;20047;-67
2022/11/26 00:58:22;;;;;;;0.10;0.10;;;;;;;;;;5076756;28;20460;-68
2022/11/26 01:00:48;;;;;;;0.10;0.10;;;;;;;;;;5075390;28;20040;-69
2022/11/26 01:03:13;;;;;;;0.20;0.20;;;;;;;;;;5072454;28;20028;-67
2022/11/26 01:05:41;;;;;;;0.10;0.10;;;;;;;;;;5074519;28;20028;-67
2022/11/26 01:08:17;;;;;;;0.20;0.20;;;;;;;;;;5076562;28;20059;-67
2022/11/26 01:10:42;;;;;;;0.15;0.15;;;;;;;;;;5076268;28;20025;-68
2022/11/26 01:13:09;;;;;;;0.10;0.10;;;;;;;;;;5076291;28;20016;-67
2022/11/26 01:15:34;;;;;;;0.10;0.10;;;;;;;;;;5072735;28;20104;-68
2022/11/26 01:17:59;;;;;;;0.10;0.10;;;;;;;;;;5064915;28;20123;-68
2022/11/26 01:20:29;;;;;;;0.52;0.50;;;;;;;;;;5056291;28;20072;-68
2022/11/26 01:22:55;;;;;;;0.20;0.20;;;;;;;;;;5073028;28;20468;-68
2022/11/26 01:25:22;;;;;;;0.43;0.43;;;;;;;;;;5076117;28;20036;-68
2022/11/26 01:27:47;;;;;;;0.20;0.20;;;;;;;;;;5075980;28;20089;-68
2022/11/26 01:30:24;;;;;;;0.10;0.10;;;;;;;;;;5074562;28;20036;-69
2022/11/26 01:32:49;;;;;;;0.15;0.15;;;;;;;;;;5075912;28;20365;-68
2022/11/26 01:35:17;;;;;;;0.10;0.10;;;;;;;;;;5074821;28;20035;-69
2022/11/26 01:37:42;;;;;;;0.15;0.15;;;;;;;;;;5074968;28;20024;-70
2022/11/26 01:40:34;;;;;;;0.40;0.40;;;;;;;;;;5075742;28;20360;-71
2022/11/26 01:43:11;;;;;;;0.30;0.30;;;;;;;;;;5073391;28;20048;-71
2022/11/26 01:45:36;;;;;;;0.10;0.10;;;;;;;;;;5075919;28;20104;-68
2022/11/26 01:48:09;;;;;;;0.10;0.10;;;;;;;;;;5075686;28;20099;-69
2022/11/26 01:50:55;;;;;;;0.35;0.35;;;;;;;;;;5074239;28;20475;-69
2022/11/26 01:53:23;;;;;;;0.20;0.20;;;;;;;;;;5074373;28;20033;-69
2022/11/26 01:55:54;;;;;;;0.20;0.20;;;;;;;;;;5075478;28;20119;-69
2022/11/26 01:58:22;;;;;;;0.10;0.10;;;;;;;;;;5076129;28;20024;-68
2022/11/26 02:00:49;;;;;;;0.20;0.20;;;;;;;;;;5075708;28;20051;-68
2022/11/26 02:03:14;;;;;;;0.10;0.10;;;;;;;;;;5075781;28;20361;-69
2022/11/26 02:05:42;;;;;;;0.10;0.10;;;;;;;;;;5075714;28;20024;-68
2022/11/26 02:08:09;;;;;;;0.10;0.10;;;;;;;;;;5075107;28;20078;-69
2022/11/26 02:10:35;;;;;;;0.10;0.10;;;;;;;;;;5075887;28;20032;-68
2022/11/26 02:13:00;;;;;;;0.20;0.20;;;;;;;;;;5075427;28;20463;-68
2022/11/26 02:15:28;;;;;;;0.10;0.10;;;;;;;;;;5075490;28;20064;-68
2022/11/26 02:18:00;;;;;;;0.13;0.13;;;;;;;;;;5075492;28;20025;-68
2022/11/26 02:20:41;;;;;;;1.00;0.65;;;;;;;;;;5075286;28;20071;-68
2022/11/26 02:23:25;;;;;;;0.13;0.13;;;;;;;;;;5074126;28;20533;-68
2022/11/26 02:26:02;;;;;;;0.20;0.20;;;;;;;;;;5075313;28;20530;-68
2022/11/26 02:28:31;;;;;;;0.10;0.10;;;;;;;;;;5075292;28;20040;-68
2022/11/26 02:30:59;;;;;;;0.10;0.10;;;;;;;;;;5075098;28;20021;-68
2022/11/26 02:33:40;;;;;;;0.20;0.20;;;;;;;;;;5074601;28;20029;-68
2022/11/26 02:36:14;;;;;;;0.43;0.30;;;;;;;;;;5075223;28;20025;-68
2022/11/26 02:38:40;;;;;;;0.10;0.10;;;;;;;;;;5075188;28;20394;-68
2022/11/26 02:41:05;;;;;;;0.15;0.15;;;;;;;;;;5077722;28;20082;-69
2022/11/26 02:43:32;;;;;;;0.10;0.10;;;;;;;;;;5084143;28;20036;-69
2022/11/26 02:46:04;;;;;;;0.10;0.10;;;;;;;;;;5084417;28;20016;-69
2022/11/26 02:48:32;;;;;;;0.10;0.10;;;;;;;;;;5079293;28;20142;-69
2022/11/26 02:51:02;;;;;;;0.10;0.10;;;;;;;;;;5074906;28;20029;-69
2022/11/26 02:53:29;;;;;;;1.20;0.57;;;;;;;;;;5075108;28;20031;-69
2022/11/26 02:56:04;;;;;;;0.20;0.20;;;;;;;;;;5073298;28;20044;-69
2022/11/26 02:58:30;;;;;;;0.10;0.10;;;;;;;;;;5073584;28;20024;-69
2022/11/26 03:00:56;;;;;;;0.20;0.20;;;;;;;;;;5074514;28;20055;-69
2022/11/26 03:03:27;;;;;;;0.10;0.10;;;;;;;;;;5074069;28;20104;-69
2022/11/26 03:05:54;;;;;;;0.85;0.82;;;;;;;;;;5073936;28;20024;-69
2022/11/26 03:08:20;;;;;;;0.10;0.10;;;;;;;;;;5074465;28;20384;-69
2022/11/26 03:10:45;;;;;;;0.10;0.10;;;;;;;;;;5072922;28;20035;-68
2022/11/26 03:13:11;;;;;;;0.10;0.10;;;;;;;;;;5074403;28;20025;-69
2022/11/26 03:15:36;;;;;;;0.10;0.10;;;;;;;;;;5074354;28;20039;-69
2022/11/26 03:18:01;;;;;;;0.20;0.20;;;;;;;;;;5074271;28;20024;-68
2022/11/26 03:20:27;;;;;;;0.43;0.30;;;;;;;;;;5072109;28;20040;-68
2022/11/26 03:22:52;;;;;;;0.68;0.45;;;;;;;;;;5074073;28;20371;-68
2022/11/26 03:25:18;;;;;;;0.10;0.10;;;;;;;;;;5073886;28;20520;-69
2022/11/26 03:27:43;;;;;;;0.10;0.10;;;;;;;;;;5074116;28;20084;-69
2022/11/26 03:30:09;;;;;;;0.35;0.35;;;;;;;;;;5074083;28;20032;-69
2022/11/26 03:32:35;;;;;;;0.10;0.10;;;;;;;;;;5074455;28;20491;-69
2022/11/26 03:35:00;;;;;;;0.10;0.10;;;;;;;;;;5074029;28;20039;-69
2022/11/26 03:37:26;;;;;;;0.10;0.10;;;;;;;;;;5073315;28;20123;-69
2022/11/26 03:39:51;;;;;;;0.10;0.10;;;;;;;;;;5073638;28;20044;-70
2022/11/26 03:42:17;;;;;;;0.10;0.10;;;;;;;;;;5072900;28;20043;-68
2022/11/26 03:44:42;;;;;;;0.38;0.38;;;;;;;;;;5073987;28;20109;-68
2022/11/26 03:47:08;;;;;;;0.65;0.25;;;;;;;;;;5073821;28;20076;-68
2022/11/26 03:49:33;;;;;;;0.10;0.10;;;;;;;;;;5072558;28;20119;-68
2022/11/26 03:51:58;;;;;;;0.20;0.20;;;;;;;;;;5074055;28;20028;-68
2022/11/26 03:54:24;;;;;;;0.10;0.10;;;;;;;;;;5073278;28;20426;-68
2022/11/26 03:56:49;;;;;;;0.10;0.10;;;;;;;;;;5073854;28;20028;-68
2022/11/26 03:59:15;;;;;;;0.10;0.10;;;;;;;;;;5073772;28;20115;-68
2022/11/26 04:01:40;;;;;;;0.10;0.10;;;;;;;;;;5073072;28;20383;-69
2022/11/26 04:04:06;;;;;;;0.10;0.10;;;;;;;;;;5067195;28;20368;-68
2022/11/26 04:06:31;;;;;;;0.10;0.10;;;;;;;;;;5069745;28;20043;-69
2022/11/26 04:08:57;;;;;;;0.10;0.10;;;;;;;;;;5069935;28;20149;-69
2022/11/26 04:11:22;;;;;;;0.10;0.10;;;;;;;;;;5069657;28;20035;-68
2022/11/26 04:13:47;;;;;;;0.10;0.10;;;;;;;;;;5067755;28;20016;-68
2022/11/26 04:16:13;;;;;;;0.10;0.10;;;;;;;;;;5068585;28;20024;-68
2022/11/26 04:18:39;;;;;;;0.17;0.17;;;;;;;;;;5069474;28;20025;-70
2022/11/26 04:21:06;;;;;;;0.20;0.20;;;;;;;;;;5069627;28;20480;-68
2022/11/26 04:23:32;;;;;;;0.10;0.10;;;;;;;;;;5069312;28;20017;-68
2022/11/26 04:25:57;;;;;;;0.10;0.10;;;;;;;;;;5069512;28;20048;-70
2022/11/26 04:28:22;;;;;;;0.10;0.10;;;;;;;;;;5068345;28;20035;-70
2022/11/26 04:30:48;;;;;;;0.20;0.20;;;;;;;;;;5069381;28;20487;-73
2022/11/26 04:33:13;;;;;;;0.10;0.10;;;;;;;;;;5069160;28;20032;-70
2022/11/26 04:35:39;;;;;;;0.20;0.20;;;;;;;;;;5069131;28;20566;-72
2022/11/26 04:38:04;;;;;;;0.10;0.10;;;;;;;;;;5069458;28;20028;-70
2022/11/26 04:40:30;;;;;;;0.10;0.10;;;;;;;;;;5069260;28;20039;-70
2022/11/26 04:42:56;;;;;;;0.65;0.47;;;;;;;;;;5068612;28;20025;-70
2022/11/26 04:45:21;;;;;;;0.10;0.10;;;;;;;;;;5069272;28;20483;-72
2022/11/26 04:47:46;;;;;;;0.10;0.10;;;;;;;;;;5069206;28;20032;-69
2022/11/26 04:50:12;;;;;;;0.20;0.20;;;;;;;;;;5069298;28;20055;-70
2022/11/26 04:52:37;;;;;;;0.20;0.20;;;;;;;;;;5067610;28;20033;-70
2022/11/26 04:55:03;;;;;;;0.10;0.10;;;;;;;;;;5068759;28;20739;-73
2022/11/26 04:57:28;;;;;;;0.20;0.20;;;;;;;;;;5067969;28;20037;-73
2022/11/26 04:59:54;;;;;;;0.10;0.10;;;;;;;;;;5069385;28;20098;-70
2022/11/26 05:02:19;;;;;;;0.20;0.20;;;;;;;;;;5068394;28;20021;-70
2022/11/26 05:04:45;;;;;;;0.10;0.10;;;;;;;;;;5068988;28;20107;-69
2022/11/26 05:07:10;;;;;;;0.10;0.10;;;;;;;;;;5069205;28;20070;-72
2022/11/26 05:09:36;;;;;;;0.10;0.10;;;;;;;;;;5067889;28;20472;-69
2022/11/26 05:12:01;;;;;;;0.10;0.10;;;;;;;;;;5068299;28;20035;-70
2022/11/26 05:14:26;;;;;;;0.15;0.15;;;;;;;;;;5067776;28;20395;-70
2022/11/26 05:16:52;;;;;;;0.13;0.13;;;;;;;;;;5067803;28;20021;-69
2022/11/26 05:19:17;;;;;;;0.13;0.13;;;;;;;;;;5069497;28;20065;-70
2022/11/26 05:21:43;;;;;;;0.10;0.10;;;;;;;;;;5067861;28;20031;-69
2022/11/26 05:24:08;;;;;;;0.10;0.10;;;;;;;;;;5069369;28;20036;-69
2022/11/26 05:26:34;;;;;;;0.10;0.10;;;;;;;;;;5071654;28;20491;-69
2022/11/26 05:28:59;;;;;;;0.10;0.10;;;;;;;;;;5072840;28;20040;-69
2022/11/26 05:31:24;;;;;;;0.10;0.10;;;;;;;;;;5072537;28;20383;-69
2022/11/26 05:33:50;;;;;;;0.20;0.20;;;;;;;;;;5071648;28;20025;-68
2022/11/26 05:36:15;;;;;;;0.10;0.10;;;;;;;;;;5071746;28;20468;-68
2022/11/26 05:38:41;;;;;;;0.20;0.20;;;;;;;;;;5054808;28;20041;-69
2022/11/26 05:41:06;;;;;;;2.40;2.30;;;;;;;;;;5071436;28;20028;-69
2022/11/26 05:43:31;;;;;;;0.10;0.10;;;;;;;;;;5070976;28;20021;-69
2022/11/26 05:46:02;;;;;;;0.10;0.10;;;;;;;;;;5070592;28;20035;-69
2022/11/26 05:48:27;;;;;;;0.32;0.32;;;;;;;;;;5070987;28;20119;-69
2022/11/26 05:50:59;;;;;;;0.10;0.10;;;;;;;;;;5072112;28;20096;-69
2022/11/26 05:53:25;;;;;;;0.10;0.10;;;;;;;;;;5071025;28;20043;-70
2022/11/26 05:55:50;;;;;;;0.10;0.10;;;;;;;;;;5071579;28;20041;-69
2022/11/26 05:58:15;;;;;;;0.10;0.10;;;;;;;;;;5070523;28;20032;-69
2022/11/26 06:00:41;;;;;;;0.20;0.20;;;;;;;;;;5070420;28;20036;-68
2022/11/26 06:03:06;;;;;;;0.10;0.10;;;;;;;;;;5069277;28;20036;-70
2022/11/26 06:05:32;;;;;;;0.10;0.10;;;;;;;;;;5070368;28;20075;-68
2022/11/26 06:07:57;;;;;;;0.10;0.10;;;;;;;;;;5071633;28;20090;-70
2022/11/26 06:10:23;;;;;;;0.10;0.10;;;;;;;;;;5069116;28;20427;-69
2022/11/26 06:12:49;;;;;;;0.10;0.10;;;;;;;;;;5070367;28;20032;-69
2022/11/26 06:15:14;;;;;;;0.10;0.10;;;;;;;;;;5071233;28;20029;-70
2022/11/26 06:17:40;;;;;;;0.10;0.10;;;;;;;;;;5071375;28;20025;-72
2022/11/26 06:20:05;;;;;;;0.10;0.10;;;;;;;;;;5071773;28;20090;-69
2022/11/26 06:22:35;;;;;;;0.10;0.10;;;;;;;;;;5070699;28;20036;-71
2022/11/26 06:25:00;;;;;;;0.25;0.25;;;;;;;;;;5069815;28;20033;-69
2022/11/26 06:27:25;;;;;;;0.10;0.10;;;;;;;;;;5071202;28;20035;-69
2022/11/26 06:29:51;;;;;;;0.10;0.10;;;;;;;;;;5071624;28;20033;-69
2022/11/26 06:32:16;;;;;;;0.10;0.10;;;;;;;;;;5070686;28;20029;-69
2022/11/26 06:34:42;;;;;;;0.10;0.10;;;;;;;;;;5071183;28;20491;-69
2022/11/26 06:37:07;;;;;;;0.10;0.10;;;;;;;;;;5069200;28;20036;-70
2022/11/26 06:39:33;;;;;;;0.10;0.10;;;;;;;;;;5070911;28;20051;-70
2022/11/26 06:41:58;;;;;;;0.10;0.10;;;;;;;;;;5071174;28;20093;-69
2022/11/26 06:44:23;;;;;;;0.10;0.10;;;;;;;;;;5068638;28;20104;-68
2022/11/26 06:46:49;;;;;;;0.10;0.10;;;;;;;;;;5070561;28;20571;-69
2022/11/26 06:49:14;;;;;;;0.10;0.10;;;;;;;;;;5070863;28;20115;-70
2022/11/26 06:51:40;;;;;;;0.10;0.10;;;;;;;;;;5070640;28;20500;-69
2022/11/26 06:54:05;;;;;;;0.10;0.10;;;;;;;;;;5071067;28;20028;-71
2022/11/26 06:56:31;;;;;;;0.10;0.10;;;;;;;;;;5071168;28;20044;-70
2022/11/26 06:58:56;;;;;;;0.10;0.10;;;;;;;;;;5069245;28;20074;-69
2022/11/26 07:01:23;;;;;;;0.10;0.10;;;;;;;;;;5070050;28;20040;-69
2022/11/26 07:03:48;;;;;;;0.20;0.20;;;;;;;;;;5070911;28;20098;-68
2022/11/26 07:06:15;;;;;;;0.20;0.20;;;;;;;;;;5070241;28;20467;-67
2022/11/26 07:08:41;;;;;;;0.10;0.10;;;;;;;;;;5069898;28;20475;-70
2022/11/26 07:11:06;;;;;;;0.10;0.10;;;;;;;;;;5070208;28;20025;-69
2022/11/26 07:13:32;;;;;;;0.10;0.10;;;;;;;;;;5069993;28;20103;-70
2022/11/26 07:16:00;;;;;;;0.20;0.20;;;;;;;;;;5070440;28;20056;-69
2022/11/26 07:18:25;;;;;;;0.10;0.10;;;;;;;;;;5070448;28;20029;-70
2022/11/26 07:20:51;;;;;;;0.30;0.30;;;;;;;;;;5070378;28;20499;-70
2022/11/26 07:23:16;;;;;;;0.10;0.10;;;;;;;;;;5069391;28;20120;-70
2022/11/26 07:25:42;;;;;;;0.10;0.10;;;;;;;;;;5068776;28;20033;-69
2022/11/26 07:28:07;;;;;;;0.10;0.10;;;;;;;;;;5067787;28;20419;-68
2022/11/26 07:30:33;;;;;;;0.10;0.10;;;;;;;;;;5068715;28;20024;-68
2022/11/26 07:32:58;;;;;;;0.10;0.10;;;;;;;;;;5070015;28;20031;-69
2022/11/26 07:35:24;;;;;;;0.10;0.10;;;;;;;;;;5069433;28;20074;-69
2022/11/26 07:37:49;;;;;;;0.10;0.10;;;;;;;;;;5069921;28;20032;-69
2022/11/26 07:40:15;;;;;;;0.10;0.10;;;;;;;;;;5069177;28;20040;-70
2022/11/26 07:42:40;;;;;;;0.20;0.20;;;;;;;;;;5069849;28;20025;-69
2022/11/26 07:45:06;;;;;;;0.10;0.10;;;;;;;;;;5069019;28;20035;-70
2022/11/26 07:47:32;;;;;;;0.30;0.30;;;;;;;;;;5069673;28;20101;-70
2022/11/26 07:49:57;;;;;;;0.10;0.10;;;;;;;;;;5081917;28;20048;-69
2022/11/26 07:52:23;;;;;;;0.10;0.10;;;;;;;;;;5080886;28;20033;-70
2022/11/26 07:54:48;;;;;;;0.10;0.10;;;;;;;;;;5081848;28;20072;-71
2022/11/26 07:57:13;;;;;;;0.10;0.10;;;;;;;;;;5074951;28;20373;-69
2022/11/26 07:59:39;;;;;;;0.10;0.10;;;;;;;;;;5069863;28;20048;-69
2022/11/26 08:02:04;;;;;;;0.10;0.10;;;;;;;;;;5068192;28;20430;-69
2022/11/26 08:04:30;;;;;;;0.13;0.13;;;;;;;;;;5067852;28;20035;-68
2022/11/26 08:06:55;;;;;;;0.93;0.47;;;;;;;;;;5069537;28;20028;-68
2022/11/26 08:09:21;;;;;;;0.20;0.20;;;;;;;;;;5068329;28;20103;-68
2022/11/26 08:11:46;;;;;;;0.17;0.17;;;;;;;;;;5067089;28;20082;-71
2022/11/26 08:14:12;;;;;;;0.10;0.10;;;;;;;;;;5069055;28;20063;-69
2022/11/26 08:16:38;;;;;;;0.10;0.10;;;;;;;;;;5063296;28;20119;-69
2022/11/26 08:19:05;;;;;;;0.20;0.20;;;;;;;;;;5054763;28;20028;-69
2022/11/26 08:21:31;;;;;;;0.10;0.10;;;;;;;;;;5049077;28;20037;-70
2022/11/26 08:23:56;;;;;;;0.10;0.10;;;;;;;;;;5049488;28;20479;-69
2022/11/26 08:26:22;;;;;;;0.15;0.15;;;;;;;;;;5054583;28;20028;-69
2022/11/26 08:28:47;;;;;;;0.10;0.10;;;;;;;;;;5063112;28;20033;-69
2022/11/26 08:31:14;;;;;;;0.10;0.10;;;;;;;;;;5069428;28;20035;-69
2022/11/26 08:33:40;;;;;;;0.10;0.10;;;;;;;;;;5069161;28;20476;-69
2022/11/26 08:36:07;;;;;;;0.47;0.32;;;;;;;;;;5068605;28;20036;-69
2022/11/26 08:38:32;;;;;;;0.10;0.10;;;;;;;;;;5067782;28;20031;-75
2022/11/26 08:41:05;;;;;;;0.10;0.10;;;;;;;;;;5067087;28;20385;-74
2022/11/26 08:43:30;;;;;;;0.10;0.10;;;;;;;;;;5068110;28;20111;-74
2022/11/26 08:45:57;;;;;;;0.20;0.20;;;;;;;;;;5068745;28;20155;-77
2022/11/26 08:48:24;;;;;;;0.10;0.10;;;;;;;;;;5068613;28;20040;-74
2022/11/26 08:50:49;;;;;;;0.35;0.35;;;;;;;;;;5069249;28;20127;-77
2022/11/26 08:53:15;;;;;;;0.10;0.10;;;;;;;;;;5067515;28;20111;-76
2022/11/26 08:55:40;;;;;;;0.10;0.10;;;;;;;;;;5068475;28;20400;-76
2022/11/26 08:58:06;;;;;;;0.40;0.40;;;;;;;;;;5067407;28;20025;-75
2022/11/26 09:00:31;;;;;;;0.10;0.10;;;;;;;;;;5070361;28;20048;-75
2022/11/26 09:02:57;;;;;;;0.10;0.10;;;;;;;;;;5071981;28;20033;-76
2022/11/26 09:05:22;;;;;;;3.75;3.45;;;;;;;;;;5072417;28;20116;-75
2022/11/26 09:07:47;;;;;;;0.10;0.10;;;;;;;;;;5066556;28;20419;-75
2022/11/26 09:10:13;;;;;;;0.20;0.20;;;;;;;;;;5053821;28;20446;-75
2022/11/26 09:12:39;;;;;;;0.10;0.10;;;;;;;;;;5063328;28;20021;-75
2022/11/26 09:15:04;;;;;;;0.10;0.10;;;;;;;;;;5056150;28;20547;-75
2022/11/26 09:17:30;;;;;;;0.10;0.10;;;;;;;;;;5056756;28;20395;-74
2022/11/26 09:19:56;;;;;;;0.10;0.10;;;;;;;;;;5065227;28;20060;-75
2022/11/26 09:22:21;;;;;;;0.10;0.10;;;;;;;;;;5060877;28;20082;-74
2022/11/26 09:24:46;;;;;;;0.10;0.10;;;;;;;;;;5060892;28;20028;-75
2022/11/26 09:27:12;;;;;;;0.10;0.10;;;;;;;;;;5071413;28;20070;-75
2022/11/26 09:29:37;;;;;;;0.13;0.13;;;;;;;;;;5072357;28;20480;-75
2022/11/26 09:32:03;;;;;;;0.20;0.20;;;;;;;;;;5072658;28;20443;-75
2022/11/26 09:34:29;;;;;;;0.10;0.10;;;;;;;;;;5070380;28;20039;-77
2022/11/26 09:36:54;;;;;;;0.10;0.10;;;;;;;;;;5070957;28;20042;-75
2022/11/26 09:39:19;;;;;;;0.10;0.10;;;;;;;;;;5071785;28;20020;-75
2022/11/26 09:41:51;;;;;;;0.20;0.20;;;;;;;;;;5071774;28;20044;-76
2022/11/26 09:44:21;;;;;;;0.30;0.30;;;;;;;;;;5071433;28;20036;-76
2022/11/26 09:46:57;;;;;;;0.30;0.30;;;;;;;;;;5072781;28;20108;-76
2022/11/26 09:49:23;;;;;;;0.10;0.10;;;;;;;;;;5072242;28;20025;-76
2022/11/26 09:51:51;;;;;;;0.10;0.10;;;;;;;;;;5067173;28;20033;-75
2022/11/26 09:54:18;;;;;;;0.10;0.10;;;;;;;;;;5071701;28;20021;-75
2022/11/26 09:56:43;;;;;;;0.10;0.10;;;;;;;;;;5071062;28;20502;-75
2022/11/26 09:59:11;;;;;;;0.20;0.20;;;;;;;;;;5104259;28;20029;-76
2022/11/26 10:01:36;;;;;;;0.10;0.10;;;;;;;;;;5070508;28;20040;-75
2022/11/26 10:04:05;;;;;;;0.10;0.10;;;;;;;;;;5070723;28;20475;-75
2022/11/26 10:06:31;;;;;;;0.15;0.15;;;;;;;;;;5071610;28;20028;-75
2022/11/26 10:09:02;;;;;;;0.10;0.10;;;;;;;;;;5069967;28;20058;-72
2022/11/26 10:11:31;;;;;;;0.10;0.10;;;;;;;;;;5069803;28;20025;-71
2022/11/26 10:13:57;;;;;;;;;;;;;;;;;;5071916;28;20546;-71
2022/11/26 10:16:34;;;;;;;0.10;0.10;;;;;;;;;;5071051;28;19904;-73
2022/11/26 10:19:07;;;;;;;0.13;0.13;;;;;;;;;;5071305;28;20025;-79
2022/11/26 10:21:41;;;;;;;0.10;0.10;;;;;;;;;;5069947;28;20040;-70
2022/11/26 10:24:26;;;;;;;0.20;0.20;;;;;;;;;;5070301;28;20541;-73
2022/11/26 10:26:52;;;;;;;0.10;0.10;;;;;;;;;;5070576;28;20040;-76
2022/11/26 10:29:23;;;;;;;0.10;0.10;;;;;;;;;;5071283;28;20025;-72
2022/11/26 10:31:49;;;;;;;0.10;0.10;;;;;;;;;;5069179;28;20321;-73
2022/11/26 10:34:20;;;;;;;0.10;0.10;;;;;;;;;;5071176;28;20021;-73
2022/11/26 10:36:46;;;;;;;0.10;0.10;;;;;;;;;;5068333;28;20035;-72
2022/11/26 10:39:13;;;;;;;0.20;0.20;;;;;;;;;;5070940;28;20060;-74
2022/11/26 10:41:39;;;;;;;0.20;0.20;;;;;;;;;;5070379;28;20136;-70
2022/11/26 10:44:23;;;;;;;0.15;0.15;;;;;;;;;;5070932;28;20121;-72
2022/11/26 10:46:49;;;;;;;0.20;0.20;;;;;;;;;;5068989;28;20051;-72
2022/11/26 10:49:23;;;;;;;0.10;0.10;;;;;;;;;;5071085;28;20056;-71
2022/11/26 10:51:50;;;;;;;0.20;0.20;;;;;;;;;;5069687;28;20025;-75
2022/11/26 10:54:27;;;;;;;0.15;0.15;;;;;;;;;;5071276;28;20384;-70
2022/11/26 10:56:53;;;;;;;0.10;0.10;;;;;;;;;;5070552;28;20036;-75
2022/11/26 10:59:22;;;;;;;0.30;0.30;;;;;;;;;;5069902;28;20021;-73
2022/11/26 11:01:48;;;;;;;1.17;0.68;;;;;;;;;;5070147;28;20048;-71
2022/11/26 11:04:26;;;;;;;0.10;0.10;;;;;;;;;;5069832;28;20024;-72
2022/11/26 11:06:52;;;;;;;0.20;0.20;;;;;;;;;;5069106;28;20029;-73
2022/11/26 11:09:31;;;;;;;0.55;0.40;;;;;;;;;;5070173;28;20021;-75
2022/11/26 11:11:57;;;;;;;;;;;;;;;;;;5070865;28;20115;-71
2022/11/26 11:14:28;;;;;;;0.55;0.43;;;;;;;;;;5070883;28;20003;-71
2022/11/26 11:16:53;;;;;;;0.20;0.20;;;;;;;;;;5068823;28;20032;-70
2022/11/26 11:19:21;;;;;;;0.20;0.20;;;;;;;;;;5070321;28;20029;-78
2022/11/26 11:21:46;;;;;;;1.08;0.77;;;;;;;;;;5069004;28;20040;-73
2022/11/26 11:24:22;;;;;;;0.10;0.10;;;;;;;;;;5067303;28;20098;-72
2022/11/26 11:26:52;;;;;;;1.05;0.43;;;;;;;;;;5069800;28;20047;-73
2022/11/26 11:29:36;;;;;;;0.10;0.10;;;;;;;;;;5070431;28;20101;-73
2022/11/26 11:32:03;;;;;;;0.40;0.22;;;;;;;;;;5068805;28;20031;-77
2022/11/26 11:34:36;;;;;;;0.40;0.32;;;;;;;;;;5069877;28;20040;-73
2022/11/26 11:37:12;;;;;;;0.47;0.28;;;;;;;;;;5069173;28;20032;-70
2022/11/26 11:39:38;;;;;;;0.40;0.20;;;;;;;;;;5068509;28;20116;-73
2022/11/26 11:42:06;;;;;;;0.20;0.20;;;;;;;;;;5068511;28;20107;-74
2022/11/26 11:44:38;;;;;;;0.50;0.40;;;;;;;;;;5068399;28;20089;-71
2022/11/26 11:47:03;;;;;;;2.13;0.70;;;;;;;;;;5070156;28;20039;-76
2022/11/26 11:49:32;;;;;;;0.52;0.30;;;;;;;;;;5069606;28;20091;-75
2022/11/26 11:52:17;;;;;;;0.68;0.52;;;;;;;;;;5070320;28;20070;-71
2022/11/26 11:54:53;;;;;;;0.30;0.30;;;;;;;;;;5068794;28;20491;-72
2022/11/26 11:57:23;;;;;;;0.30;0.30;;;;;;;;;;5068779;28;20063;-71
2022/11/26 12:00:12;;;;;;;1.35;0.70;;;;;;;;;;5069648;28;20119;-72
2022/11/26 12:02:54;;;;;;;0.93;0.90;;;;;;;;;;5067962;28;20044;-71
2022/11/26 12:05:34;;;;;;;0.30;0.30;;;;;;;;;;5068490;28;20108;-71
2022/11/26 12:08:21;;;;;;;0.25;0.25;;;;;;;;;;5069334;28;20036;-71
2022/11/26 12:10:56;;;;;;;0.13;0.13;;;;;;;;;;5067580;28;20046;-74
2022/11/26 12:13:22;;;;;;;0.10;0.10;;;;;;;;;;5068805;28;20040;-72
2022/11/26 12:15:50;;;;;;;0.10;0.10;;;;;;;;;;5067859;28;20377;-72
2022/11/26 12:18:16;;;;;;;0.20;0.20;;;;;;;;;;5066878;28;20046;-72
2022/11/26 12:20:43;;;;;;;0.25;0.25;;;;;;;;;;5065449;28;20036;-71
2022/11/26 12:23:27;;;;;;;0.30;0.30;;;;;;;;;;5069209;28;20016;-71
2022/11/26 12:25:57;;;;;;;0.20;0.20;;;;;;;;;;5068911;28;20028;-71
2022/11/26 12:28:26;;;;;;;0.22;0.22;;;;;;;;;;5069808;28;20032;-72
2022/11/26 12:30:57;;;;;;;0.20;0.20;;;;;;;;;;5064812;28;20035;-71
2022/11/26 12:33:25;;;;;;;0.20;0.20;;;;;;;;;;5054551;28;20035;-71
2022/11/26 12:35:57;;;;;;;0.10;0.10;;;;;;;;;;5061196;28;20021;-71
2022/11/26 12:38:23;;;;;;;0.20;0.20;;;;;;;;;;5069110;28;20044;-71
2022/11/26 12:40:51;;;;;;;0.20;0.20;;;;;;;;;;5067483;28;20032;-75
2022/11/26 12:43:43;;;;;;;0.10;0.10;;;;;;;;;;5061750;28;20054;-72
2022/11/26 12:46:17;;;;;;;0.10;0.10;;;;;;;;;;5052881;28;20110;-70
2022/11/26 12:48:52;;;;;;;0.65;0.65;;;;;;;;;;5067728;28;20462;-72
2022/11/26 12:51:21;;;;;;;0.10;0.10;;;;;;;;;;5057701;28;20064;-71
2022/11/26 12:53:46;;;;;;;0.30;0.30;;;;;;;;;;5048396;28;20025;-72
2022/11/26 12:56:18;;;;;;;0.30;0.30;;;;;;;;;;5062060;28;20049;-70
2022/11/26 12:58:51;;;;;;;0.20;0.20;;;;;;;;;;5068988;28;20033;-70
2022/11/26 13:01:17;;;;;;;0.10;0.10;;;;;;;;;;5069098;28;20055;-71
2022/11/26 13:03:42;;;;;;;0.10;0.10;;;;;;;;;;5066062;28;20029;-70
2022/11/26 13:06:07;;;;;;;0.25;0.25;;;;;;;;;;5068493;28;20071;-70
2022/11/26 13:08:51;;;;;;;0.20;0.20;;;;;;;;;;5068557;28;20028;-70
2022/11/26 13:11:41;;;;;;;0.13;0.13;;;;;;;;;;5067254;28;20039;-71
2022/11/26 13:14:19;;;;;;;0.20;0.20;;;;;;;;;;5061082;28;20557;-72
2022/11/26 13:16:44;;;;;;;0.20;0.20;;;;;;;;;;5048377;28;20029;-70
2022/11/26 13:19:12;;;;;;;0.15;0.15;;;;;;;;;;5048468;28;20021;-71
2022/11/26 13:21:56;;;;;;;0.30;0.30;;;;;;;;;;5050907;28;20041;-74
2022/11/26 13:24:24;;;;;;;0.10;0.10;;;;;;;;;;5057369;28;20036;-72
2022/11/26 13:26:53;;;;;;;0.13;0.13;;;;;;;;;;5052594;28;20507;-71
2022/11/26 13:29:19;;;;;;;0.20;0.20;;;;;;;;;;5056836;28;20020;-75
2022/11/26 13:31:44;;;;;;;0.10;0.10;;;;;;;;;;5061639;28;20085;-72
2022/11/26 13:34:13;;;;;;;0.10;0.10;;;;;;;;;;5066798;28;20029;-72
2022/11/26 13:36:50;;;;;;;0.10;0.10;;;;;;;;;;5067516;28;20032;-72
2022/11/26 13:39:25;;;;;;;0.20;0.20;;;;;;;;;;5064391;28;20031;-71
2022/11/26 13:42:05;;;;;;;0.10;0.10;;;;;;;;;;5064858;28;20090;-71
2022/11/26 13:44:48;;;;;;;0.20;0.20;;;;;;;;;;5058178;28;20135;-71
2022/11/26 13:47:20;;;;;;;0.10;0.10;;;;;;;;;;5049815;28;20079;-72
2022/11/26 13:49:51;;;;;;;0.20;0.20;;;;;;;;;;5059417;28;20155;-70
2022/11/26 13:52:46;;;;;;;0.10;0.10;;;;;;;;;;5061576;28;20047;-72
2022/11/26 13:55:24;;;;;;;0.10;0.10;;;;;;;;;;5039373;28;20076;-70
2022/11/26 13:57:51;;;;;;;0.20;0.20;;;;;;;;;;5058085;28;20119;-71
2022/11/26 14:00:36;;;;;;;0.17;0.17;;;;;;;;;;5051237;28;20480;-71
2022/11/26 14:03:02;;;;;;;0.20;0.20;;;;;;;;;;5058927;28;20029;-72
2022/11/26 14:05:51;;;;;;;0.25;0.25;;;;;;;;;;5059042;28;20032;-72
2022/11/26 14:08:54;;;;;;;0.10;0.10;;;;;;;;;;5059977;28;20040;-71
2022/11/26 14:11:38;;;;;;;0.17;0.17;;;;;;;;;;5000863;28;20030;-72
2022/11/26 14:14:42;;;;;;;0.30;0.30;;;;;;;;;;5000194;28;20033;-72
2022/11/26 14:17:07;;;;;;;1.13;1.10;;;;;;;;;;4990308;28;20050;-71
2022/11/26 14:19:39;;;;;;;1.05;1.05;;;;;;;;;;5002349;28;20041;-72
2022/11/26 14:22:28;;;;;;;2.47;1.40;;;;;;;;;;5047301;28;20048;-73
2022/11/26 14:24:55;;;;;;;0.10;0.10;;;;;;;;;;5080105;28;20044;-71
2022/11/26 14:27:23;;;;;;;0.10;0.10;;;;;;;;;;5085885;28;20025;-72
2022/11/26 14:30:07;;;;;;;0.30;0.30;;;;;;;;;;5082894;28;20090;-72
2022/11/26 14:32:36;;;;;;;0.20;0.20;;;;;;;;;;5068944;28;20079;-75
2022/11/26 14:35:01;;;;;;;0.10;0.10;;;;;;;;;;5069903;28;20359;-76
2022/11/26 14:37:28;;;;;;;0.10;0.10;;;;;;;;;;5069901;28;20032;-71
2022/11/26 14:39:58;;;;;;;0.10;0.10;;;;;;;;;;5070401;28;20068;-74
2022/11/26 14:42:24;;;;;;;0.10;0.10;;;;;;;;;;5068634;28;21424;-72
2022/11/26 14:45:00;;;;;;;0.10;0.10;;;;;;;;;;5068890;28;20054;-72
2022/11/26 14:47:25;;;;;;;0.20;0.20;;;;;;;;;;5071014;28;20383;-71
2022/11/26 14:49:54;;;;;;;0.13;0.13;;;;;;;;;;5070875;28;20036;-76
2022/11/26 14:52:24;;;;;;;1.65;1.55;;;;;;;;;;5068628;28;20067;-72